Time;durP1;ratioP1;P1;durP2;ratioP2;P2;SDS_P1;SDS_P2;PMS_P1;PMS_P2;Temp;Humidity;BMP_temperature;BMP_pressure;BME280_temperature;BME280_humidity;BME280_pressure;Samples;Min_cycle;Max_cycle;Signal;HPM_P1;HPM_P2
2022/05/18 00:00:09;;;;;;;16.40;7.97;;;;;;;;;;5014874;28;93240;-64
2022/05/18 00:02:36;;;;;;;15.90;8.07;;;;;;;;;;5015043;28;93231;-64
2022/05/18 00:05:03;;;;;;;14.63;8.25;;;;;;;;;;5018132;28;93352;-65
2022/05/18 00:07:29;;;;;;;16.15;8.85;;;;;;;;;;5028408;28;93180;-64
2022/05/18 00:09:56;;;;;;;22.52;8.85;;;;;;;;;;5028058;27;92454;-64
2022/05/18 00:12:22;;;;;;;22.55;8.27;;;;;;;;;;5025270;27;94357;-64
2022/05/18 00:14:49;;;;;;;13.55;8.52;;;;;;;;;;5023055;27;94022;-64
2022/05/18 00:17:15;;;;;;;18.73;8.85;;;;;;;;;;5034436;27;93014;-63
2022/05/18 00:19:41;;;;;;;13.85;8.27;;;;;;;;;;5020984;27;96895;-64
2022/05/18 00:22:08;;;;;;;15.15;8.60;;;;;;;;;;5023828;27;92379;-64
2022/05/18 00:24:34;;;;;;;16.88;9.00;;;;;;;;;;5015052;28;94206;-64
2022/05/18 00:27:03;;;;;;;16.45;8.63;;;;;;;;;;5014133;28;94428;-64
2022/05/18 00:29:30;;;;;;;17.33;8.70;;;;;;;;;;5015505;28;92543;-64
2022/05/18 00:31:56;;;;;;;16.60;8.57;;;;;;;;;;5013880;28;93469;-63
2022/05/18 00:34:23;;;;;;;15.85;9.02;;;;;;;;;;5014557;28;92473;-64
2022/05/18 00:36:49;;;;;;;22.73;8.82;;;;;;;;;;5013818;28;92952;-64
2022/05/18 00:39:15;;;;;;;15.45;8.20;;;;;;;;;;5011954;28;93456;-64
2022/05/18 00:41:42;;;;;;;10.45;7.28;;;;;;;;;;5006943;28;92733;-64
2022/05/18 00:44:08;;;;;;;14.68;7.70;;;;;;;;;;5007218;28;96533;-64
2022/05/18 00:46:34;;;;;;;19.30;7.20;;;;;;;;;;5008397;27;94210;-64
2022/05/18 00:49:03;;;;;;;18.38;8.25;;;;;;;;;;5006714;27;93456;-67
2022/05/18 00:51:31;;;;;;;13.40;8.10;;;;;;;;;;5008951;28;94145;-64
2022/05/18 00:54:11;;;;;;;14.88;8.35;;;;;;;;;;5006522;28;93063;-64
2022/05/18 00:56:56;;;;;;;19.50;8.00;;;;;;;;;;5006238;27;93351;-64
2022/05/18 00:59:28;;;;;;;13.07;7.63;;;;;;;;;;5008628;28;93844;-64
2022/05/18 01:01:55;;;;;;;16.23;8.05;;;;;;;;;;5008421;28;91837;-65
2022/05/18 01:04:23;;;;;;;15.43;8.30;;;;;;;;;;5007243;27;93815;-64
2022/05/18 01:07:02;;;;;;;15.40;7.85;;;;;;;;;;5007388;28;94482;-64
2022/05/18 01:09:39;;;;;;;13.30;8.30;;;;;;;;;;5010958;27;95528;-64
2022/05/18 01:12:06;;;;;;;13.30;7.95;;;;;;;;;;5005389;28;96177;-64
2022/05/18 01:14:39;;;;;;;9.90;7.38;;;;;;;;;;5007859;28;94382;-64
2022/05/18 01:17:06;;;;;;;16.60;7.72;;;;;;;;;;5005245;27;93236;-65
2022/05/18 01:19:37;;;;;;;16.55;7.38;;;;;;;;;;5012566;27;93632;-65
2022/05/18 01:22:12;;;;;;;10.80;7.45;;;;;;;;;;5009672;28;92508;-65
2022/05/18 01:24:44;;;;;;;9.68;7.45;;;;;;;;;;5008807;28;94171;-64
2022/05/18 01:27:10;;;;;;;14.35;6.97;;;;;;;;;;5010325;27;93410;-64
2022/05/18 01:29:37;;;;;;;9.90;7.00;;;;;;;;;;5010499;27;94223;-64
2022/05/18 01:32:05;;;;;;;11.57;6.78;;;;;;;;;;5008409;27;93321;-65
2022/05/18 01:34:33;;;;;;;11.30;7.18;;;;;;;;;;5008550;28;96793;-64
2022/05/18 01:37:00;;;;;;;9.10;7.18;;;;;;;;;;5016380;28;93885;-64
2022/05/18 01:39:28;;;;;;;12.48;7.50;;;;;;;;;;5015551;27;93425;-64
2022/05/18 01:42:00;;;;;;;17.08;6.82;;;;;;;;;;5014669;28;93032;-64
2022/05/18 01:44:27;;;;;;;9.63;6.63;;;;;;;;;;5010430;27;93966;-64
2022/05/18 01:46:53;;;;;;;14.75;6.65;;;;;;;;;;5009868;27;93777;-65
2022/05/18 01:49:20;;;;;;;18.85;7.25;;;;;;;;;;5011121;27;93336;-64
2022/05/18 01:51:48;;;;;;;22.52;7.45;;;;;;;;;;5009347;28;92957;-64
2022/05/18 01:54:14;;;;;;;12.98;6.40;;;;;;;;;;5009335;28;96581;-64
2022/05/18 01:56:41;;;;;;;12.23;6.32;;;;;;;;;;5012660;28;92986;-64
2022/05/18 01:59:07;;;;;;;11.82;6.47;;;;;;;;;;5013048;28;96605;-64
2022/05/18 02:01:34;;;;;;;12.52;6.65;;;;;;;;;;5009926;28;93201;-64
2022/05/18 02:04:01;;;;;;;9.80;6.63;;;;;;;;;;5014497;27;93878;-64
2022/05/18 02:06:29;;;;;;;10.43;6.00;;;;;;;;;;5008100;27;94020;-64
2022/05/18 02:08:56;;;;;;;6.80;5.95;;;;;;;;;;5013485;28;93231;-64
2022/05/18 02:11:22;;;;;;;12.38;6.63;;;;;;;;;;5009726;27;93149;-64
2022/05/18 02:13:51;;;;;;;8.20;6.10;;;;;;;;;;5008514;28;94145;-64
2022/05/18 02:16:17;;;;;;;11.48;6.70;;;;;;;;;;5008016;27;93386;-64
2022/05/18 02:18:44;;;;;;;6.78;5.75;;;;;;;;;;5016487;28;93193;-64
2022/05/18 02:21:11;;;;;;;9.05;6.85;;;;;;;;;;5014023;28;93827;-64
2022/05/18 02:23:38;;;;;;;8.45;6.47;;;;;;;;;;5006890;27;96298;-64
2022/05/18 02:26:06;;;;;;;9.80;6.93;;;;;;;;;;5008503;28;93457;-64
2022/05/18 02:28:32;;;;;;;13.27;7.90;;;;;;;;;;5010351;27;92512;-64
2022/05/18 02:30:58;;;;;;;8.45;7.00;;;;;;;;;;5010225;28;94321;-64
2022/05/18 02:33:24;;;;;;;10.10;7.40;;;;;;;;;;5007716;27;94099;-65
2022/05/18 02:35:51;;;;;;;9.45;7.03;;;;;;;;;;5008890;28;93964;-64
2022/05/18 02:38:17;;;;;;;10.32;8.07;;;;;;;;;;5011590;28;93248;-63
2022/05/18 02:40:43;;;;;;;11.50;7.57;;;;;;;;;;5013575;27;92908;-64
2022/05/18 02:43:10;;;;;;;10.75;7.93;;;;;;;;;;5008497;28;92490;-64
2022/05/18 02:45:36;;;;;;;11.77;8.13;;;;;;;;;;5011943;27;93820;-64
2022/05/18 02:48:02;;;;;;;11.80;7.45;;;;;;;;;;5007790;27;96673;-64
2022/05/18 02:50:29;;;;;;;14.02;8.65;;;;;;;;;;5008117;28;95681;-64
2022/05/18 02:52:55;;;;;;;10.57;8.02;;;;;;;;;;5007605;28;93350;-64
2022/05/18 02:58:06;;;;;;;13.88;8.48;;;;;;;;;;5010332;28;94160;-64
2022/05/18 03:00:32;;;;;;;20.15;8.23;;;;;;;;;;5014562;28;94252;-64
2022/05/18 03:02:58;;;;;;;9.50;8.15;;;;;;;;;;5017893;28;92457;-64
2022/05/18 03:05:25;;;;;;;11.43;7.20;;;;;;;;;;5016091;28;93137;-64
2022/05/18 03:07:51;;;;;;;10.02;7.13;;;;;;;;;;5014296;28;92705;-64
2022/05/18 03:10:18;;;;;;;7.45;6.68;;;;;;;;;;5035526;27;93190;-64
2022/05/18 03:12:44;;;;;;;13.18;6.88;;;;;;;;;;5018108;27;96021;-63
2022/05/18 03:15:12;;;;;;;13.35;6.97;;;;;;;;;;5015480;27;92597;-64
2022/05/18 03:17:39;;;;;;;9.43;6.78;;;;;;;;;;5028521;28;92999;-64
2022/05/18 03:20:06;;;;;;;9.02;7.07;;;;;;;;;;5014451;28;93609;-64
2022/05/18 03:25:18;;;;;;;9.10;6.43;;;;;;;;;;5032420;27;92975;-63
2022/05/18 03:27:45;;;;;;;17.13;7.43;;;;;;;;;;5028844;27;92634;-64
2022/05/18 03:30:12;;;;;;;10.48;7.45;;;;;;;;;;5015606;28;92963;-63
2022/05/18 03:32:40;;;;;;;11.30;7.32;;;;;;;;;;5014353;28;94444;-64
2022/05/18 03:35:07;;;;;;;11.52;7.53;;;;;;;;;;5035132;27;93255;-64
2022/05/18 03:37:33;;;;;;;12.82;7.97;;;;;;;;;;5029755;27;96610;-64
2022/05/18 03:39:59;;;;;;;10.38;8.20;;;;;;;;;;5020504;27;93444;-64
2022/05/18 03:42:26;;;;;;;17.58;8.70;;;;;;;;;;5015385;28;92670;-64
2022/05/18 03:44:52;;;;;;;15.90;9.65;;;;;;;;;;5030352;28;93235;-64
2022/05/18 03:47:19;;;;;;;15.63;9.25;;;;;;;;;;5035090;28;92435;-64
2022/05/18 03:49:45;;;;;;;17.45;8.77;;;;;;;;;;5016041;27;93009;-64
2022/05/18 03:52:11;;;;;;;13.30;7.95;;;;;;;;;;5018777;28;93252;-63
2022/05/18 03:54:37;;;;;;;11.45;7.70;;;;;;;;;;5014829;28;91813;-64
2022/05/18 03:57:06;;;;;;;11.10;7.65;;;;;;;;;;5014195;28;92355;-64
2022/05/18 03:59:32;;;;;;;14.77;8.48;;;;;;;;;;5015412;28;94492;-64
2022/05/18 04:01:59;;;;;;;13.77;8.38;;;;;;;;;;5013325;28;94855;-64
2022/05/18 04:04:25;;;;;;;13.30;7.80;;;;;;;;;;5018785;28;95639;-64
2022/05/18 04:06:51;;;;;;;17.80;8.60;;;;;;;;;;5020869;27;93285;-64
2022/05/18 04:09:18;;;;;;;13.13;7.72;;;;;;;;;;5014570;28;92977;-64
2022/05/18 04:11:44;;;;;;;16.42;8.45;;;;;;;;;;5014501;28;93510;-64
2022/05/18 04:14:10;;;;;;;21.60;9.00;;;;;;;;;;5013896;28;92635;-64
2022/05/18 04:16:36;;;;;;;19.48;9.35;;;;;;;;;;5023139;27;93227;-63
2022/05/18 04:19:03;;;;;;;34.72;9.23;;;;;;;;;;5016105;28;92645;-64
2022/05/18 04:21:31;;;;;;;21.98;8.68;;;;;;;;;;5027984;27;92511;-64
2022/05/18 04:23:57;;;;;;;17.38;8.98;;;;;;;;;;5017137;28;94216;-64
2022/05/18 04:26:23;;;;;;;22.08;9.55;;;;;;;;;;5012118;28;96012;-64
2022/05/18 04:28:49;;;;;;;18.48;9.68;;;;;;;;;;5016900;27;92498;-64
2022/05/18 04:31:16;;;;;;;17.02;9.15;;;;;;;;;;5021650;28;94076;-64
2022/05/18 04:33:42;;;;;;;19.00;10.80;;;;;;;;;;5033008;28;92465;-64
2022/05/18 04:36:08;;;;;;;24.77;10.15;;;;;;;;;;5033654;27;93366;-64
2022/05/18 04:38:35;;;;;;;28.10;10.05;;;;;;;;;;5030996;27;93289;-64
2022/05/18 04:41:01;;;;;;;16.02;10.32;;;;;;;;;;5013648;27;92509;-64
2022/05/18 04:43:31;;;;;;;33.17;11.25;;;;;;;;;;5013924;28;92987;-64
2022/05/18 04:45:59;;;;;;;22.75;10.35;;;;;;;;;;5024923;27;94264;-64
2022/05/18 04:48:30;;;;;;;29.20;9.80;;;;;;;;;;5031247;27;92668;-64
2022/05/18 04:50:56;;;;;;;17.38;9.90;;;;;;;;;;5015675;27;94859;-64
2022/05/18 04:53:23;;;;;;;18.50;9.93;;;;;;;;;;5013610;27;92504;-64
2022/05/18 04:55:49;;;;;;;20.98;11.20;;;;;;;;;;5014438;28;93266;-64
2022/05/18 04:58:16;;;;;;;23.55;10.93;;;;;;;;;;5020856;28;93317;-64
2022/05/18 05:00:43;;;;;;;20.73;10.25;;;;;;;;;;5020589;28;92530;-63
2022/05/18 05:03:09;;;;;;;18.60;10.30;;;;;;;;;;5031953;27;94209;-64
2022/05/18 05:05:36;;;;;;;20.92;10.65;;;;;;;;;;5032029;28;93457;-64
2022/05/18 05:08:02;;;;;;;28.65;10.50;;;;;;;;;;5037405;27;91979;-64
2022/05/18 05:10:29;;;;;;;24.70;11.50;;;;;;;;;;5015774;27;92513;-64
2022/05/18 05:12:55;;;;;;;28.80;12.13;;;;;;;;;;5023857;28;93805;-63
2022/05/18 05:15:21;;;;;;;24.00;11.70;;;;;;;;;;5028825;27;96321;-64
2022/05/18 05:17:49;;;;;;;24.77;12.38;;;;;;;;;;5017843;27;93481;-64
2022/05/18 05:20:15;;;;;;;21.75;12.45;;;;;;;;;;5033733;27;92500;-64
2022/05/18 05:22:41;;;;;;;22.67;10.98;;;;;;;;;;5035629;27;93223;-63
2022/05/18 05:25:08;;;;;;;21.92;11.20;;;;;;;;;;5035315;27;94563;-64
2022/05/18 05:27:34;;;;;;;23.98;11.02;;;;;;;;;;5030768;28;92628;-63
2022/05/18 05:30:01;;;;;;;24.83;11.77;;;;;;;;;;5015813;28;93170;-64
2022/05/18 05:32:27;;;;;;;22.92;11.70;;;;;;;;;;5035344;27;92901;-64
2022/05/18 05:34:54;;;;;;;20.95;11.10;;;;;;;;;;5039411;27;92449;-63
2022/05/18 05:37:20;;;;;;;18.65;10.18;;;;;;;;;;5016740;27;93374;-63
2022/05/18 05:39:46;;;;;;;20.88;11.27;;;;;;;;;;5014539;28;94922;-63
2022/05/18 05:42:12;;;;;;;24.15;11.43;;;;;;;;;;5023966;28;94387;-63
2022/05/18 05:44:39;;;;;;;25.00;11.75;;;;;;;;;;5036073;27;94385;-63
2022/05/18 05:47:05;;;;;;;18.92;11.48;;;;;;;;;;5031444;27;92396;-64
2022/05/18 05:49:32;;;;;;;21.65;11.65;;;;;;;;;;5035402;27;94621;-63
2022/05/18 05:51:58;;;;;;;19.67;11.20;;;;;;;;;;5033958;27;93466;-63
2022/05/18 05:54:26;;;;;;;26.25;11.82;;;;;;;;;;5027282;27;92733;-63
2022/05/18 05:56:52;;;;;;;19.75;11.07;;;;;;;;;;5016468;28;92539;-64
2022/05/18 05:59:19;;;;;;;20.15;11.45;;;;;;;;;;5015640;28;92387;-63
2022/05/18 06:01:46;;;;;;;24.63;12.13;;;;;;;;;;5017393;28;93103;-63
2022/05/18 06:04:12;;;;;;;18.48;11.75;;;;;;;;;;5020988;28;95744;-64
2022/05/18 06:06:39;;;;;;;18.50;11.10;;;;;;;;;;5026897;27;92377;-63
2022/05/18 06:09:07;;;;;;;23.05;11.32;;;;;;;;;;5014666;28;93403;-65
2022/05/18 06:11:34;;;;;;;25.80;12.50;;;;;;;;;;5025771;28;93948;-64
2022/05/18 06:14:01;;;;;;;21.33;12.20;;;;;;;;;;5022146;28;92481;-64
2022/05/18 06:16:27;;;;;;;24.27;12.25;;;;;;;;;;5024924;27;93248;-64
2022/05/18 06:18:54;;;;;;;34.00;12.35;;;;;;;;;;5014162;28;92450;-64
2022/05/18 06:21:20;;;;;;;26.80;13.55;;;;;;;;;;5015876;28;93998;-63
2022/05/18 06:23:46;;;;;;;20.58;13.43;;;;;;;;;;5016011;28;93562;-63
2022/05/18 06:26:13;;;;;;;23.80;13.13;;;;;;;;;;5030812;28;92628;-64
2022/05/18 06:28:41;;;;;;;21.17;12.60;;;;;;;;;;5031547;27;94811;-66
2022/05/18 06:31:07;;;;;;;21.55;13.43;;;;;;;;;;5032051;27;93174;-64
2022/05/18 06:33:35;;;;;;;21.50;13.80;;;;;;;;;;5016733;28;92636;-65
2022/05/18 06:36:01;;;;;;;26.63;12.45;;;;;;;;;;5014947;28;92415;-64
2022/05/18 06:38:28;;;;;;;21.02;13.23;;;;;;;;;;5018139;28;93468;-64
2022/05/18 06:43:40;;;;;;;26.38;14.10;;;;;;;;;;5035551;27;97401;-64
2022/05/18 06:46:07;;;;;;;17.98;13.15;;;;;;;;;;5035347;27;91693;-64
2022/05/18 06:48:33;;;;;;;36.20;14.73;;;;;;;;;;5014938;28;92374;-65
2022/05/18 06:51:17;;;;;;;23.27;13.63;;;;;;;;;;5020084;28;94497;-65
2022/05/18 06:53:44;;;;;;;21.88;14.68;;;;;;;;;;5026656;27;95068;-64
2022/05/18 06:56:10;;;;;;;36.72;15.65;;;;;;;;;;5013436;28;96746;-63
2022/05/18 06:58:37;;;;;;;23.20;16.00;;;;;;;;;;5016506;28;93565;-64
2022/05/18 07:01:06;;;;;;;27.75;16.75;;;;;;;;;;5025257;27;92441;-63
2022/05/18 07:03:32;;;;;;;27.13;15.82;;;;;;;;;;5034257;27;93471;-64
2022/05/18 07:05:59;;;;;;;27.13;16.40;;;;;;;;;;5024459;28;92419;-64
2022/05/18 07:08:25;;;;;;;29.05;17.00;;;;;;;;;;5033014;27;93382;-64
2022/05/18 07:10:51;;;;;;;30.20;16.35;;;;;;;;;;5022814;27;93596;-64
2022/05/18 07:13:18;;;;;;;30.50;17.05;;;;;;;;;;5014400;28;92459;-64
2022/05/18 07:15:45;;;;;;;28.00;17.80;;;;;;;;;;5020745;27;94129;-63
2022/05/18 07:18:12;;;;;;;25.92;17.33;;;;;;;;;;5032664;27;96757;-64
2022/05/18 07:20:38;;;;;;;23.38;16.88;;;;;;;;;;5033600;27;92390;-64
2022/05/18 07:23:05;;;;;;;29.00;17.45;;;;;;;;;;5031029;27;93016;-64
2022/05/18 07:25:31;;;;;;;29.08;18.08;;;;;;;;;;5014207;28;92676;-64
2022/05/18 07:27:57;;;;;;;26.10;17.00;;;;;;;;;;5012869;28;93572;-64
2022/05/18 07:30:43;;;;;;;28.65;18.08;;;;;;;;;;5021826;28;93930;-64
2022/05/18 07:33:10;;;;;;;32.50;17.60;;;;;;;;;;5034156;27;92537;-64
2022/05/18 07:35:36;;;;;;;36.20;18.05;;;;;;;;;;5024288;27;94298;-64
2022/05/18 07:38:02;;;;;;;23.25;16.98;;;;;;;;;;5032015;28;93497;-64
2022/05/18 07:40:49;;;;;;;26.88;18.25;;;;;;;;;;5033576;28;92776;-66
2022/05/18 07:43:18;;;;;;;35.42;19.25;;;;;;;;;;5012901;28;94807;-67
2022/05/18 07:45:45;;;;;;;34.58;18.98;;;;;;;;;;5020993;27;93644;-67
2022/05/18 07:48:18;;;;;;;25.92;18.67;;;;;;;;;;5034139;27;93411;-67
2022/05/18 07:50:45;;;;;;;31.92;17.90;;;;;;;;;;5033312;27;93582;-65
2022/05/18 07:53:12;;;;;;;41.47;18.52;;;;;;;;;;5025688;27;92558;-64
2022/05/18 07:55:38;;;;;;;28.38;17.60;;;;;;;;;;5014526;28;93189;-65
2022/05/18 07:58:06;;;;;;;32.30;18.20;;;;;;;;;;5013454;28;93846;-67
2022/05/18 08:00:33;;;;;;;26.33;18.08;;;;;;;;;;5032059;27;91712;-68
2022/05/18 08:02:59;;;;;;;31.08;17.77;;;;;;;;;;5032018;27;93566;-66
2022/05/18 08:05:26;;;;;;;32.50;18.23;;;;;;;;;;5035963;27;93313;-66
2022/05/18 08:07:52;;;;;;;28.67;18.75;;;;;;;;;;5032726;27;94816;-66
2022/05/18 08:15:50;;;;;;;30.77;17.88;;;;;;;;;;5024780;27;93321;-66
2022/05/18 08:18:17;;;;;;;33.63;17.58;;;;;;;;;;5033634;27;93597;-66
2022/05/18 08:20:50;;;;;;;27.17;17.38;;;;;;;;;;5014251;27;94081;-66
2022/05/18 08:23:17;;;;;;;28.10;17.23;;;;;;;;;;5022617;28;93047;-66
2022/05/18 08:25:46;;;;;;;24.85;15.90;;;;;;;;;;5013909;28;92763;-67
2022/05/18 08:28:13;;;;;;;27.20;16.55;;;;;;;;;;5016645;28;92608;-67
2022/05/18 08:30:40;;;;;;;25.98;15.27;;;;;;;;;;5022292;28;93319;-65
2022/05/18 08:33:07;;;;;;;30.10;14.32;;;;;;;;;;5018391;27;95380;-66
2022/05/18 08:35:33;;;;;;;19.17;13.63;;;;;;;;;;5022440;28;95798;-66
2022/05/18 08:37:59;;;;;;;28.10;14.55;;;;;;;;;;5025451;28;94450;-65
2022/05/18 08:40:28;;;;;;;18.95;13.82;;;;;;;;;;5023648;28;93657;-65
2022/05/18 08:42:55;;;;;;;17.00;11.48;;;;;;;;;;5029028;27;92831;-66
2022/05/18 08:45:22;;;;;;;25.30;12.90;;;;;;;;;;5020124;27;94045;-67
2022/05/18 08:48:11;;;;;;;20.00;11.63;;;;;;;;;;5018009;28;92557;-64
2022/05/18 08:50:38;;;;;;;18.05;10.15;;;;;;;;;;5030644;27;94304;-68
2022/05/18 08:53:07;;;;;;;20.75;11.02;;;;;;;;;;5024615;27;93527;-67
2022/05/18 08:55:39;;;;;;;19.10;12.88;;;;;;;;;;5016608;28;92378;-67
2022/05/18 08:58:10;;;;;;;20.30;12.18;;;;;;;;;;5019100;28;96980;-67
2022/05/18 09:00:38;;;;;;;25.30;13.15;;;;;;;;;;5019555;28;92637;-67
2022/05/18 09:03:09;;;;;;;22.08;11.98;;;;;;;;;;5020099;28;93368;-67
2022/05/18 09:05:54;;;;;;;27.13;11.05;;;;;;;;;;5022016;27;93400;-69
2022/05/18 09:08:32;;;;;;;14.10;10.10;;;;;;;;;;5020229;28;93266;-69
2022/05/18 09:11:03;;;;;;;21.25;10.05;;;;;;;;;;5032207;28;94193;-67
2022/05/18 09:13:36;;;;;;;20.65;10.45;;;;;;;;;;5031503;28;94572;-67
2022/05/18 09:16:14;;;;;;;13.50;8.70;;;;;;;;;;5034170;27;93267;-67
2022/05/18 09:18:52;;;;;;;12.52;7.85;;;;;;;;;;5030587;27;93546;-67
2022/05/18 09:21:33;;;;;;;23.50;8.35;;;;;;;;;;5023734;27;92508;-66
2022/05/18 09:24:06;;;;;;;15.82;7.85;;;;;;;;;;5024485;28;94918;-66
2022/05/18 09:26:44;;;;;;;16.45;8.38;;;;;;;;;;5034551;27;93431;-67
2022/05/18 09:29:17;;;;;;;11.70;7.03;;;;;;;;;;5018610;28;92382;-66
2022/05/18 09:31:57;;;;;;;16.83;7.13;;;;;;;;;;5025941;28;93076;-67
2022/05/18 09:34:36;;;;;;;20.63;7.72;;;;;;;;;;5031261;28;94555;-67
2022/05/18 09:37:06;;;;;;;18.13;6.55;;;;;;;;;;5039260;27;92470;-67
2022/05/18 09:39:36;;;;;;;10.57;5.75;;;;;;;;;;5020195;27;93224;-67
2022/05/18 09:42:06;;;;;;;10.60;4.47;;;;;;;;;;5018176;27;91990;-67
2022/05/18 09:44:42;;;;;;;16.65;4.78;;;;;;;;;;5016876;28;94481;-67
2022/05/18 09:47:10;;;;;;;14.05;4.28;;;;;;;;;;5017615;27;93175;-67
2022/05/18 09:49:36;;;;;;;13.52;3.80;;;;;;;;;;5012989;28;95725;-67
2022/05/18 09:52:04;;;;;;;9.65;3.67;;;;;;;;;;5017838;28;95632;-67
2022/05/18 09:54:31;;;;;;;16.33;4.38;;;;;;;;;;5028961;28;93236;-67
2022/05/18 09:57:05;;;;;;;12.20;3.67;;;;;;;;;;5034669;27;92505;-67
2022/05/18 09:59:35;;;;;;;8.85;3.58;;;;;;;;;;5038014;27;92840;-67
2022/05/18 10:07:45;;;;;;;17.75;3.55;;;;;;;;;;5036968;27;92350;-67
2022/05/18 10:10:13;;;;;;;14.20;3.60;;;;;;;;;;5026525;27;94287;-66
2022/05/18 10:12:47;;;;;;;15.88;4.20;;;;;;;;;;5036999;27;94351;-67
2022/05/18 10:15:19;;;;;;;11.85;2.90;;;;;;;;;;5020558;27;95816;-67
2022/05/18 10:17:48;;;;;;;8.93;3.55;;;;;;;;;;5036628;27;92406;-67
2022/05/18 10:20:25;;;;;;;11.35;2.90;;;;;;;;;;5035887;27;92863;-67
2022/05/18 10:22:52;;;;;;;18.30;3.20;;;;;;;;;;5034599;27;92458;-67
2022/05/18 10:25:44;;;;;;;5.13;2.13;;;;;;;;;;5018188;28;94264;-66
2022/05/18 10:28:37;;;;;;;6.85;2.72;;;;;;;;;;5021156;28;92801;-67
2022/05/18 10:31:04;;;;;;;9.73;2.80;;;;;;;;;;5013313;28;92545;-68
2022/05/18 10:33:34;;;;;;;9.20;2.60;;;;;;;;;;5021331;28;93011;-66
2022/05/18 10:36:07;;;;;;;15.23;2.58;;;;;;;;;;5025553;27;93619;-64
2022/05/18 10:38:35;;;;;;;17.95;3.03;;;;;;;;;;5027333;28;92533;-67
2022/05/18 10:41:04;;;;;;;12.55;2.72;;;;;;;;;;5020661;27;94874;-68
2022/05/18 10:43:30;;;;;;;7.93;2.08;;;;;;;;;;5027417;27;93378;-68
2022/05/18 10:46:15;;;;;;;9.77;2.72;;;;;;;;;;5036576;27;93131;-66
2022/05/18 10:48:49;;;;;;;8.05;2.22;;;;;;;;;;5025089;27;93449;-67
2022/05/18 10:51:26;;;;;;;4.70;2.15;;;;;;;;;;5017382;28;92403;-67
2022/05/18 10:54:04;;;;;;;5.15;2.50;;;;;;;;;;5030842;27;94215;-65
2022/05/18 10:56:31;;;;;;;23.88;4.20;;;;;;;;;;5031528;27;94309;-66
2022/05/18 10:59:15;;;;;;;27.02;4.22;;;;;;;;;;5027707;28;91691;-65
2022/05/18 11:01:44;;;;;;;34.70;5.10;;;;;;;;;;5032332;28;92668;-63
2022/05/18 11:04:24;;;;;;;22.67;4.22;;;;;;;;;;5022151;27;93218;-65
2022/05/18 11:06:50;;;;;;;33.25;5.63;;;;;;;;;;5031376;28;94903;-65
2022/05/18 11:09:22;;;;;;;27.25;5.55;;;;;;;;;;5029827;27;93357;-64
2022/05/18 11:11:49;;;;;;;22.23;4.82;;;;;;;;;;5035554;27;92418;-65
2022/05/18 11:14:33;;;;;;;14.02;4.47;;;;;;;;;;5035557;27;92832;-65
2022/05/18 11:17:05;;;;;;;15.27;4.50;;;;;;;;;;5016399;27;93518;-63
2022/05/18 11:19:37;;;;;;;11.13;4.13;;;;;;;;;;5029401;28;92494;-65
2022/05/18 11:22:06;;;;;;;11.55;3.45;;;;;;;;;;5030619;27;93104;-66
2022/05/18 11:24:43;;;;;;;7.68;3.58;;;;;;;;;;5018213;27;92259;-66
2022/05/18 11:27:33;;;;;;;15.80;2.90;;;;;;;;;;5034427;28;92403;-65
2022/05/18 11:30:04;;;;;;;7.57;2.05;;;;;;;;;;5036391;27;93272;-66
2022/05/18 11:32:59;;;;;;;5.88;2.28;;;;;;;;;;5033733;27;94827;-65
2022/05/18 11:35:56;;;;;;;7.45;2.53;;;;;;;;;;5010273;27;96709;-66
2022/05/18 11:38:23;;;;;;;14.98;3.45;;;;;;;;;;4969268;28;93545;-66
2022/05/18 11:41:00;;;;;;;5.40;2.53;;;;;;;;;;4972735;28;92546;-66
2022/05/18 11:43:35;;;;;;;9.35;3.30;;;;;;;;;;4972978;28;92793;-66
2022/05/18 11:46:13;;;;;;;8.23;3.90;;;;;;;;;;4966523;28;94889;-66
2022/05/18 11:48:45;;;;;;;10.95;3.90;;;;;;;;;;4972301;28;92624;-66
2022/05/18 11:51:22;;;;;;;20.33;3.88;;;;;;;;;;4973418;28;91886;-67
2022/05/18 11:54:01;;;;;;;13.75;4.22;;;;;;;;;;4974550;28;93995;-66
2022/05/18 11:56:48;;;;;;;12.57;3.10;;;;;;;;;;4969861;28;94254;-65
2022/05/18 12:01:53;;;;;;;8.73;3.88;;;;;;;;;;4971903;28;92478;-66
2022/05/18 12:04:26;;;;;;;12.23;4.40;;;;;;;;;;4955862;28;92793;-66
2022/05/18 12:07:02;;;;;;;6.80;2.88;;;;;;;;;;4967923;28;93525;-65
2022/05/18 12:09:28;;;;;;;6.20;2.50;;;;;;;;;;4960132;28;92543;-65
2022/05/18 12:12:10;;;;;;;7.18;3.13;;;;;;;;;;4957093;28;93180;-65
2022/05/18 12:14:58;;;;;;;8.80;3.75;;;;;;;;;;4993691;28;94640;-66
2022/05/18 12:17:34;;;;;;;12.30;3.83;;;;;;;;;;5019407;28;91757;-65
2022/05/18 12:20:23;;;;;;;9.25;3.13;;;;;;;;;;5021119;28;93626;-65
2022/05/18 12:22:51;;;;;;;9.93;3.20;;;;;;;;;;5008433;28;92457;-66
2022/05/18 12:25:19;;;;;;;11.48;4.00;;;;;;;;;;5015400;28;94942;-66
2022/05/18 12:27:46;;;;;;;13.15;3.53;;;;;;;;;;5015149;28;93439;-65
2022/05/18 12:30:14;;;;;;;12.07;3.10;;;;;;;;;;5015111;28;92640;-66
2022/05/18 12:32:41;;;;;;;11.30;3.63;;;;;;;;;;5014091;28;93790;-66
2022/05/18 12:35:16;;;;;;;12.40;3.80;;;;;;;;;;5016058;28;94471;-66
2022/05/18 12:37:58;;;;;;;16.35;4.63;;;;;;;;;;5023809;28;93632;-66
2022/05/18 12:40:30;;;;;;;7.55;3.67;;;;;;;;;;5016304;27;93882;-65
2022/05/18 12:42:58;;;;;;;7.97;3.40;;;;;;;;;;5032446;27;91893;-66
2022/05/18 12:45:25;;;;;;;10.82;3.92;;;;;;;;;;5014431;27;92492;-66
2022/05/18 12:48:01;;;;;;;10.68;3.70;;;;;;;;;;5026652;27;94408;-67
2022/05/18 12:50:34;;;;;;;9.93;3.75;;;;;;;;;;5032230;28;96056;-66
2022/05/18 12:53:02;;;;;;;9.07;4.03;;;;;;;;;;5034143;27;95276;-66
2022/05/18 12:55:31;;;;;;;8.63;3.80;;;;;;;;;;5017010;27;93607;-64
2022/05/18 12:58:09;;;;;;;8.98;3.38;;;;;;;;;;5026602;28;92727;-64
2022/05/18 13:00:52;;;;;;;6.72;3.30;;;;;;;;;;5021376;27;93094;-63
2022/05/18 13:03:20;;;;;;;13.50;2.88;;;;;;;;;;5011585;28;93082;-64
2022/05/18 13:05:47;;;;;;;8.70;2.97;;;;;;;;;;5019076;27;93318;-64
2022/05/18 13:08:20;;;;;;;9.07;2.97;;;;;;;;;;5030379;27;92545;-65
2022/05/18 13:11:04;;;;;;;8.32;2.72;;;;;;;;;;5012132;28;92481;-68
2022/05/18 13:13:34;;;;;;;20.27;3.83;;;;;;;;;;5013456;28;92473;-64
2022/05/18 13:16:00;;;;;;;7.68;3.20;;;;;;;;;;5021400;27;95668;-65
2022/05/18 13:18:34;;;;;;;7.32;2.88;;;;;;;;;;5031466;27;93831;-66
2022/05/18 13:21:06;;;;;;;9.68;4.13;;;;;;;;;;5032760;27;93251;-66
2022/05/18 13:23:32;;;;;;;6.45;2.83;;;;;;;;;;5025997;27;93676;-66
2022/05/18 13:26:00;;;;;;;8.88;1.98;;;;;;;;;;5023549;27;93894;-66
2022/05/18 13:28:30;;;;;;;6.65;1.95;;;;;;;;;;5028306;27;93449;-67
2022/05/18 13:30:59;;;;;;;11.23;2.70;;;;;;;;;;5023323;27;94302;-66
2022/05/18 13:33:49;;;;;;;8.38;2.13;;;;;;;;;;5016332;27;93492;-67
2022/05/18 13:36:30;;;;;;;7.30;2.25;;;;;;;;;;5016755;28;93564;-71
2022/05/18 13:38:56;;;;;;;6.00;2.15;;;;;;;;;;5022306;27;92603;-67
2022/05/18 13:41:23;;;;;;;5.07;2.40;;;;;;;;;;5028839;27;94878;-63
2022/05/18 13:43:51;;;;;;;8.25;2.05;;;;;;;;;;5018039;28;93544;-64
2022/05/18 13:46:21;;;;;;;7.90;2.03;;;;;;;;;;5035269;27;92440;-66
2022/05/18 13:48:57;;;;;;;5.60;2.08;;;;;;;;;;5020924;27;92534;-64
2022/05/18 13:51:26;;;;;;;3.35;1.90;;;;;;;;;;5023537;27;93810;-65
2022/05/18 13:53:55;;;;;;;3.95;1.52;;;;;;;;;;5020881;28;93702;-67
2022/05/18 13:56:31;;;;;;;7.95;1.92;;;;;;;;;;5015765;28;94742;-65
2022/05/18 13:59:01;;;;;;;7.97;1.85;;;;;;;;;;5020262;28;91793;-65
2022/05/18 14:01:32;;;;;;;7.43;1.92;;;;;;;;;;5014556;28;94455;-68
2022/05/18 14:03:59;;;;;;;5.07;2.20;;;;;;;;;;5019238;28;93300;-67
2022/05/18 14:06:25;;;;;;;8.02;1.58;;;;;;;;;;5023398;27;95279;-67
2022/05/18 14:08:58;;;;;;;5.90;2.00;;;;;;;;;;5019072;28;95586;-67
2022/05/18 14:11:26;;;;;;;5.47;2.05;;;;;;;;;;5034187;27;92831;-66
2022/05/18 14:13:53;;;;;;;9.63;2.85;;;;;;;;;;5034494;27;93197;-67
2022/05/18 14:16:35;;;;;;;4.68;2.30;;;;;;;;;;5026731;27;94773;-67
2022/05/18 14:19:04;;;;;;;4.05;1.98;;;;;;;;;;5017796;27;92655;-67
2022/05/18 14:21:30;;;;;;;5.07;1.55;;;;;;;;;;5015642;28;92979;-68
2022/05/18 14:24:06;;;;;;;5.60;1.92;;;;;;;;;;5028737;28;92739;-68
2022/05/18 14:26:43;;;;;;;6.20;2.05;;;;;;;;;;5036026;27;92377;-68
2022/05/18 14:29:12;;;;;;;5.90;2.40;;;;;;;;;;5038446;27;93455;-67
2022/05/18 14:31:46;;;;;;;4.60;2.15;;;;;;;;;;5034190;27;95434;-67
2022/05/18 14:34:15;;;;;;;10.75;2.15;;;;;;;;;;5034304;27;95581;-68
2022/05/18 14:36:52;;;;;;;4.80;2.17;;;;;;;;;;5034694;28;94264;-67
2022/05/18 14:39:25;;;;;;;8.70;1.98;;;;;;;;;;5015997;27;92468;-67
2022/05/18 14:41:53;;;;;;;6.60;2.75;;;;;;;;;;5015742;28;93111;-68
2022/05/18 14:44:34;;;;;;;4.05;2.47;;;;;;;;;;5015162;28;93162;-67
2022/05/18 14:47:31;;;;;;;5.28;2.45;;;;;;;;;;5035735;27;92501;-67
2022/05/18 14:50:16;;;;;;;5.28;2.38;;;;;;;;;;5036653;28;94286;-68
2022/05/18 14:52:54;;;;;;;9.82;4.03;;;;;;;;;;5037094;27;93633;-67
2022/05/18 14:55:26;;;;;;;5.80;2.83;;;;;;;;;;5021772;27;93254;-67
2022/05/18 14:57:54;;;;;;;11.18;3.08;;;;;;;;;;5029069;28;96116;-67
2022/05/18 15:00:34;;;;;;;11.07;3.53;;;;;;;;;;5035689;27;92662;-67
2022/05/18 15:03:07;;;;;;;11.80;3.13;;;;;;;;;;5034968;27;93289;-67
2022/05/18 15:05:35;;;;;;;18.65;3.20;;;;;;;;;;5035378;27;93303;-68